createdAt,value
2023-03-29T00:00:14.799Z,10.60
2023-03-29T00:05:22.920Z,10.90
2023-03-29T00:10:24.990Z,10.60
2023-03-29T00:15:27.872Z,10.60
2023-03-29T00:20:38.774Z,10.70
2023-03-29T00:25:49.994Z,9.50
2023-03-29T00:30:54.491Z,9.90
2023-03-29T00:35:56.504Z,9.90
2023-03-29T00:41:01.820Z,9.70
2023-03-29T00:46:04.517Z,10.10
2023-03-29T00:51:11.052Z,11.00
2023-03-29T00:56:27.735Z,11.40
2023-03-29T01:02:07.278Z,12.40
2023-03-29T01:07:54.938Z,12.10
2023-03-29T01:13:11.900Z,12.70
2023-03-29T01:18:16.922Z,12.30
2023-03-29T01:23:34.687Z,11.60
2023-03-29T01:28:55.643Z,12.90
2023-03-29T01:34:11.636Z,13.00
2023-03-29T01:39:19.043Z,12.90
2023-03-29T01:44:40.591Z,14.00
2023-03-29T01:49:59.826Z,14.80
2023-03-29T01:55:25.013Z,14.20
2023-03-29T02:00:29.760Z,14.30
2023-03-29T02:05:35.921Z,15.70
2023-03-29T02:10:38.396Z,14.50
2023-03-29T02:15:40.851Z,14.10
2023-03-29T02:20:47.386Z,15.20
2023-03-29T02:25:53.606Z,15.50
2023-03-29T02:31:14.814Z,15.50
2023-03-29T02:36:20.134Z,15.50
2023-03-29T02:41:24.690Z,21.70
2023-03-29T02:46:31.002Z,23.30
2023-03-29T02:51:34.993Z,22.50
2023-03-29T02:56:50.309Z,23.60
2023-03-29T03:01:53.716Z,24.50
2023-03-29T03:06:56.948Z,27.40
2023-03-29T03:12:00.331Z,25.00
2023-03-29T03:17:05.179Z,25.40
2023-03-29T03:22:09.928Z,29.80
2023-03-29T03:27:14.708Z,33.70
2023-03-29T03:32:17.613Z,35.40
2023-03-29T03:37:40.960Z,39.40
2023-03-29T03:42:44.044Z,29.10
2023-03-29T03:47:46.730Z,32.20
2023-03-29T03:53:02.622Z,32.40
2023-03-29T03:58:18.051Z,35.00
2023-03-29T04:03:24.135Z,34.50
2023-03-29T04:08:35.357Z,36.30
2023-03-29T04:13:48.279Z,33.40
2023-03-29T04:19:13.946Z,32.80
2023-03-29T04:24:23.977Z,31.00
2023-03-29T04:29:46.845Z,32.20
2023-03-29T04:34:58.140Z,33.00
2023-03-29T04:40:00.460Z,33.00
2023-03-29T04:45:07.151Z,36.10
2023-03-29T04:50:25.888Z,40.30
2023-03-29T04:55:28.269Z,35.00
2023-03-29T05:00:38.065Z,34.60
2023-03-29T05:06:10.632Z,34.90
2023-03-29T05:11:14.323Z,34.70
2023-03-29T05:16:30.258Z,34.30
2023-03-29T05:21:34.441Z,34.60
2023-03-29T05:26:40.577Z,35.20
2023-03-29T05:31:43.089Z,32.90
2023-03-29T05:36:46.379Z,23.40
2023-03-29T05:41:49.455Z,27.60
2023-03-29T05:47:15.556Z,26.10
2023-03-29T05:52:18.602Z,29.70
2023-03-29T05:57:21.082Z,29.20
2023-03-29T06:02:26.223Z,30.60
2023-03-29T06:07:29.956Z,29.30
2023-03-29T06:13:01.991Z,29.70
2023-03-29T06:18:07.740Z,29.80
2023-03-29T06:23:10.729Z,27.00
2023-03-29T06:28:15.674Z,28.10
2023-03-29T06:33:18.882Z,28.30
2023-03-29T06:38:28.633Z,23.60
2023-03-29T06:43:33.320Z,23.00
2023-03-29T06:48:48.729Z,20.40
2023-03-29T06:53:54.857Z,19.60
2023-03-29T06:58:57.393Z,18.60
2023-03-29T07:04:09.451Z,16.40
2023-03-29T07:09:36.431Z,15.20
2023-03-29T07:15:02.262Z,13.20
2023-03-29T07:20:27.257Z,11.60
2023-03-29T07:25:50.497Z,12.60
2023-03-29T07:31:12.537Z,10.70
2023-03-29T07:36:34.502Z,9.60
2023-03-29T07:41:46.116Z,9.70
2023-03-29T07:46:51.254Z,7.60
2023-03-29T07:52:30.107Z,8.40
2023-03-29T07:57:44.200Z,7.30
2023-03-29T08:03:32.645Z,5.40
2023-03-29T08:14:38.557Z,6.20
2023-03-29T08:20:18.337Z,6.00
2023-03-29T08:25:45.505Z,7.00
2023-03-29T08:31:14.752Z,6.00
2023-03-29T08:36:55.917Z,4.80
2023-03-29T08:42:30.922Z,4.40
2023-03-29T08:48:12.464Z,4.50
2023-03-29T08:53:33.791Z,3.50
2023-03-29T08:58:48.021Z,4.00
2023-03-29T09:04:31.802Z,2.70
2023-03-29T09:10:11.492Z,2.90
2023-03-29T09:16:25.559Z,2.10
2023-03-29T09:22:30.650Z,2.30
2023-03-29T09:27:45.597Z,2.80
2023-03-29T09:33:45.092Z,1.80
2023-03-29T09:39:02.428Z,2.10
2023-03-29T09:44:31.300Z,3.00
2023-03-29T09:50:05.255Z,2.70
2023-03-29T09:55:40.184Z,2.40
2023-03-29T10:01:15.560Z,1.70
2023-03-29T10:06:32.709Z,2.10
2023-03-29T10:12:04.770Z,1.70
2023-03-29T10:17:38.037Z,2.40
2023-03-29T10:23:03.897Z,3.10
2023-03-29T10:28:16.220Z,2.10
2023-03-29T10:34:01.455Z,2.80
2023-03-29T10:39:29.950Z,2.70
2023-03-29T10:44:47.334Z,3.10
2023-03-29T10:50:06.185Z,3.00
2023-03-29T10:55:18.737Z,3.10
2023-03-29T11:00:40.758Z,3.10
2023-03-29T11:06:46.202Z,2.60
2023-03-29T11:13:08.433Z,3.00
2023-03-29T11:19:26.385Z,2.90
2023-03-29T11:31:18.379Z,3.10
2023-03-29T11:37:28.148Z,2.70
2023-03-29T11:43:01.398Z,2.50
2023-03-29T11:48:14.176Z,2.80
2023-03-29T11:54:02.871Z,2.30
2023-03-29T11:59:58.817Z,2.40
2023-03-29T12:06:05.090Z,2.80
2023-03-29T12:11:49.127Z,2.40
2023-03-29T12:17:05.525Z,2.50
2023-03-29T12:22:53.328Z,2.70
2023-03-29T12:28:26.635Z,2.50
2023-03-29T12:34:36.237Z,2.20
2023-03-29T12:40:52.006Z,2.00
2023-03-29T12:46:56.057Z,2.30
2023-03-29T12:52:36.812Z,8.20
2023-03-29T12:58:08.435Z,2.60
2023-03-29T13:03:57.464Z,2.50
2023-03-29T13:09:46.510Z,2.60
2023-03-29T13:15:36.819Z,2.80
2023-03-29T13:21:39.138Z,2.60
2023-03-29T13:27:13.903Z,2.50
2023-03-29T13:33:13.897Z,2.70
2023-03-29T13:38:25.983Z,3.10
2023-03-29T13:44:08.937Z,3.00
2023-03-29T13:49:34.405Z,2.70
2023-03-29T13:55:17.998Z,2.50
2023-03-29T14:00:37.139Z,3.00
2023-03-29T14:05:44.238Z,2.70
2023-03-29T14:10:50.119Z,2.60
2023-03-29T14:16:12.990Z,2.90
2023-03-29T14:21:15.050Z,3.20
2023-03-29T14:26:22.759Z,3.30
2023-03-29T14:31:52.299Z,3.20
2023-03-29T14:36:54.477Z,2.90
2023-03-29T14:41:57.201Z,2.90
2023-03-29T14:47:03.385Z,3.10
2023-03-29T14:52:14.843Z,2.50
2023-03-29T14:57:20.789Z,2.40
2023-03-29T15:02:36.105Z,2.90
2023-03-29T15:07:43.236Z,3.70
2023-03-29T15:12:46.653Z,3.50
2023-03-29T15:17:52.898Z,3.40
2023-03-29T15:23:17.804Z,3.80
2023-03-29T15:28:44.825Z,3.90
2023-03-29T15:34:24.182Z,3.70
2023-03-29T15:39:35.652Z,3.20
2023-03-29T15:44:41.302Z,3.60
2023-03-29T15:49:53.611Z,3.20
2023-03-29T15:55:00.611Z,3.20
2023-03-29T16:00:08.024Z,3.40
2023-03-29T16:05:14.823Z,2.80
2023-03-29T16:10:21.124Z,3.00
2023-03-29T16:15:33.847Z,4.00
2023-03-29T16:20:38.086Z,4.30
2023-03-29T16:26:05.035Z,3.10
2023-03-29T16:31:17.262Z,3.50
2023-03-29T16:36:24.617Z,3.00
2023-03-29T16:41:38.698Z,3.00
2023-03-29T16:46:46.209Z,3.60
2023-03-29T16:51:48.870Z,3.30
2023-03-29T16:56:53.474Z,3.10
2023-03-29T17:01:58.467Z,3.40
2023-03-29T17:07:05.552Z,3.80
2023-03-29T17:12:08.156Z,4.00
2023-03-29T17:17:11.170Z,5.30
2023-03-29T17:22:13.281Z,3.70
2023-03-29T17:27:15.957Z,4.10
2023-03-29T17:32:20.505Z,3.80
2023-03-29T17:37:29.950Z,4.60
2023-03-29T17:42:34.296Z,4.50
2023-03-29T17:47:43.306Z,4.10
2023-03-29T17:52:48.806Z,4.50
2023-03-29T17:57:51.793Z,4.20
2023-03-29T18:02:54.495Z,4.40
2023-03-29T18:07:57.347Z,4.30
2023-03-29T18:13:01.251Z,4.60
2023-03-29T18:18:04.404Z,5.70
2023-03-29T18:23:09.194Z,5.20
2023-03-29T18:28:14.579Z,6.00
2023-03-29T18:33:25.372Z,5.80
2023-03-29T18:38:27.410Z,6.10
2023-03-29T18:43:34.012Z,5.80
2023-03-29T18:48:42.341Z,7.70
2023-03-29T18:53:44.872Z,5.70
2023-03-29T18:58:48.248Z,5.70
2023-03-29T19:03:50.305Z,5.70
2023-03-29T19:08:58.279Z,5.20
2023-03-29T19:14:00.824Z,6.10
2023-03-29T19:19:04.976Z,5.80
2023-03-29T19:24:08.162Z,5.80
2023-03-29T19:29:13.090Z,5.80
2023-03-29T19:34:21.120Z,5.90
2023-03-29T19:39:25.006Z,6.10
2023-03-29T19:44:28.277Z,5.60
2023-03-29T19:49:31.039Z,6.40
2023-03-29T19:54:33.363Z,8.10
2023-03-29T19:59:39.087Z,9.80
2023-03-29T20:04:41.745Z,9.80
2023-03-29T20:09:45.507Z,10.70
2023-03-29T20:14:56.491Z,10.90
2023-03-29T20:19:59.027Z,9.90
2023-03-29T20:25:01.080Z,8.80
2023-03-29T20:30:04.737Z,7.30
2023-03-29T20:35:07.185Z,6.40
2023-03-29T20:40:11.232Z,5.90
2023-03-29T20:45:18.659Z,6.00
2023-03-29T20:50:26.697Z,5.60
2023-03-29T20:55:30.503Z,4.90
2023-03-29T21:00:38.387Z,5.50
2023-03-29T21:05:40.845Z,4.40
2023-03-29T21:10:51.691Z,4.40
2023-03-29T21:15:57.141Z,4.60
2023-03-29T21:21:04.994Z,4.20
2023-03-29T21:26:12.691Z,4.70
2023-03-29T21:31:17.597Z,4.30
2023-03-29T21:36:20.985Z,4.20
2023-03-29T21:41:27.082Z,4.10
2023-03-29T21:46:34.277Z,4.10
2023-03-29T21:51:46.769Z,4.60
2023-03-29T21:56:51.128Z,4.10
2023-03-29T22:01:53.558Z,4.50
2023-03-29T22:06:56.174Z,3.90
2023-03-29T22:11:59.934Z,3.60
2023-03-29T22:17:07.008Z,3.80
2023-03-29T22:22:26.485Z,3.70
2023-03-29T22:27:30.702Z,3.40
2023-03-29T22:32:35.859Z,3.40
2023-03-29T22:37:44.194Z,3.40
2023-03-29T22:42:49.398Z,3.40
2023-03-29T22:48:36.028Z,3.30
2023-03-29T22:53:39.079Z,3.70
2023-03-29T22:59:06.539Z,3.60
2023-03-29T23:04:38.847Z,3.40
2023-03-29T23:10:42.921Z,3.50
2023-03-29T23:16:34.025Z,3.60
2023-03-29T23:21:47.152Z,2.80
2023-03-29T23:27:29.511Z,3.90
2023-03-29T23:33:15.823Z,3.50
2023-03-29T23:38:44.949Z,3.50
2023-03-29T23:43:57.703Z,3.80
2023-03-29T23:49:51.453Z,3.50
2023-03-29T23:55:30.897Z,3.20
